Time,TemperatureF,DewpointF,PressureIn,WindDirection,WindDirectionDegrees,WindSpeedMPH,WindSpeedGustMPH,Humidity,HourlyPrecipIn,Conditions,Clouds,dailyrainin,SoftwareType,DateUTC
2013-08-26 00:11:00,64.7,58.0,29.82,West,279,2.0,-999.0,80,-99.99,,,0.02,weatherlink.com 1.10,2013-08-26 07:11:00,
2013-08-26 00:26:00,63.5,59.0,29.82,South,176,0.0,-999.0,85,-99.99,,,0.02,weatherlink.com 1.10,2013-08-26 07:26:00,
2013-08-26 00:41:00,63.3,59.0,29.85,ENE,66,1.0,-999.0,87,-99.99,,,0.02,weatherlink.com 1.10,2013-08-26 07:41:00,
2013-08-26 00:56:00,63.6,59.0,29.84,South,173,0.0,-999.0,86,-99.99,,,0.02,weatherlink.com 1.10,2013-08-26 07:56:00,
2013-08-26 01:11:00,63.5,59.0,29.86,ENE,73,1.0,-999.0,86,-99.99,,,0.03,weatherlink.com 1.10,2013-08-26 08:11:00,
2013-08-26 01:26:00,63.3,59.0,29.88,SSE,147,0.0,-999.0,87,-99.99,,,0.03,weatherlink.com 1.10,2013-08-26 08:26:00,
2013-08-26 01:41:00,62.9,59.0,29.89,SSE,147,0.0,-999.0,88,-99.99,,,0.03,weatherlink.com 1.10,2013-08-26 08:41:00,
2013-08-26 01:56:00,62.7,59.0,29.89,SSE,147,0.0,-999.0,88,-99.99,,,0.03,weatherlink.com 1.10,2013-08-26 08:56:00,
2013-08-26 02:11:00,62.6,59.0,29.89,SE,134,0.0,-999.0,89,-99.99,,,0.03,weatherlink.com 1.10,2013-08-26 09:11:00,
2013-08-26 02:26:00,62.2,59.0,29.89,SE,134,0.0,-999.0,89,-99.99,,,0.04,weatherlink.com 1.10,2013-08-26 09:26:00,
2013-08-26 02:41:00,61.6,58.0,29.89,SE,134,0.0,-999.0,89,-99.99,,,0.04,weatherlink.com 1.10,2013-08-26 09:41:00,
2013-08-26 02:56:00,61.3,58.0,29.89,SE,134,0.0,-999.0,90,-99.99,,,0.04,weatherlink.com 1.10,2013-08-26 09:56:00,
2013-08-26 03:11:00,61.2,58.0,29.90,SE,134,0.0,-999.0,90,-99.99,,,0.04,weatherlink.com 1.10,2013-08-26 10:11:00,
2013-08-26 03:26:00,60.8,58.0,29.90,SE,134,0.0,-999.0,90,-99.99,,,0.04,weatherlink.com 1.10,2013-08-26 10:26:00,
2013-08-26 03:41:00,60.5,58.0,29.90,SE,134,0.0,-999.0,90,-99.99,,,0.04,weatherlink.com 1.10,2013-08-26 10:41:00,
2013-08-26 03:56:00,60.2,58.0,29.91,SE,134,0.0,-999.0,91,-99.99,,,0.04,weatherlink.com 1.10,2013-08-26 10:56:00,
2013-08-26 04:11:00,60.1,58.0,29.91,SE,134,0.0,-999.0,91,-99.99,,,0.04,weatherlink.com 1.10,2013-08-26 11:11:00,
2013-08-26 04:26:00,60.2,58.0,29.92,SE,134,0.0,-999.0,91,-99.99,,,0.04,weatherlink.com 1.10,2013-08-26 11:26:00,
2013-08-26 04:41:00,60.0,57.0,29.92,SE,134,0.0,-999.0,91,-99.99,,,0.05,weatherlink.com 1.10,2013-08-26 11:41:00,
2013-08-26 04:56:00,60.0,57.0,29.92,SE,134,0.0,-999.0,91,-99.99,,,0.05,weatherlink.com 1.10,2013-08-26 11:56:00,
2013-08-26 05:11:00,59.9,57.0,29.92,SE,134,0.0,-999.0,91,-99.99,,,0.05,weatherlink.com 1.10,2013-08-26 12:11:00,
2013-08-26 05:26:00,59.2,57.0,29.92,SE,134,0.0,-999.0,91,-99.99,,,0.05,weatherlink.com 1.10,2013-08-26 12:26:00,
2013-08-26 05:41:00,58.9,56.0,29.93,SE,134,1.0,-999.0,91,-99.99,,,0.05,weatherlink.com 1.10,2013-08-26 12:41:00,
2013-08-26 05:56:00,58.9,56.0,29.93,SE,134,0.0,-999.0,91,-99.99,,,0.05,weatherlink.com 1.10,2013-08-26 12:56:00,
2013-08-26 06:11:00,58.8,56.0,29.94,ESE,123,0.0,-999.0,91,-99.99,,,0.05,weatherlink.com 1.10,2013-08-26 13:11:00,
2013-08-26 06:26:00,58.4,56.0,29.94,ESE,107,4.0,-999.0,91,-99.99,,,0.06,weatherlink.com 1.10,2013-08-26 13:26:00,
2013-08-26 06:41:00,58.2,56.0,29.94,ESE,103,2.0,-999.0,91,-99.99,,,0.06,weatherlink.com 1.10,2013-08-26 13:41:00,
2013-08-26 06:56:00,58.6,56.0,29.95,ESE,103,0.0,-999.0,91,-99.99,,,0.06,weatherlink.com 1.10,2013-08-26 13:56:00,
2013-08-26 07:11:00,58.7,56.0,29.95,ESE,103,0.0,-999.0,91,-99.99,,,0.06,weatherlink.com 1.10,2013-08-26 14:11:00,
2013-08-26 07:26:00,58.9,56.0,29.95,ESE,103,0.0,-999.0,91,-99.99,,,0.06,weatherlink.com 1.10,2013-08-26 14:26:00,
2013-08-26 07:41:00,59.4,57.0,29.95,ESE,103,0.0,-999.0,91,-99.99,,,0.06,weatherlink.com 1.10,2013-08-26 14:41:00,
2013-08-26 07:56:00,59.5,57.0,29.95,ESE,104,0.0,-999.0,91,-99.99,,,0.06,weatherlink.com 1.10,2013-08-26 14:56:00,
2013-08-26 08:11:00,59.6,57.0,29.95,ESE,105,0.0,-999.0,91,-99.99,,,0.06,weatherlink.com 1.10,2013-08-26 15:11:00,
2013-08-26 08:26:00,60.2,57.0,29.95,ESE,105,0.0,-999.0,90,-99.99,,,0.06,weatherlink.com 1.10,2013-08-26 15:26:00,
2013-08-26 08:41:00,60.8,58.0,29.95,ESE,104,0.0,-999.0,90,-99.99,,,0.06,weatherlink.com 1.10,2013-08-26 15:41:00,
2013-08-26 08:56:00,62.1,59.0,29.95,ENE,72,0.0,-999.0,89,-99.99,,,0.06,weatherlink.com 1.10,2013-08-26 15:56:00,
2013-08-26 09:11:00,64.4,60.0,29.94,East,83,2.0,-999.0,84,-99.99,,,0.07,weatherlink.com 1.10,2013-08-26 16:11:00,
2013-08-26 09:26:00,65.1,60.0,29.94,ESE,106,0.0,-999.0,82,-99.99,,,0.07,weatherlink.com 1.10,2013-08-26 16:26:00,
2013-08-26 09:42:00,66.0,60.0,29.93,SSE,150,1.0,-999.0,81,-99.99,,,0.07,weatherlink.com 1.10,2013-08-26 16:42:00,
2013-08-26 09:57:00,67.3,60.0,29.93,SSE,157,1.0,-999.0,78,-99.99,,,0.07,weatherlink.com 1.10,2013-08-26 16:57:00,
2013-08-26 10:12:00,69.1,59.0,29.92,SSE,158,0.0,-999.0,70,-99.99,,,0.07,weatherlink.com 1.10,2013-08-26 17:12:00,
2013-08-26 10:27:00,71.0,59.0,29.91,SSE,158,4.0,-999.0,67,-99.99,,,0.07,weatherlink.com 1.10,2013-08-26 17:27:00,
2013-08-26 10:42:00,71.5,58.0,29.90,SSE,158,4.0,-999.0,63,-99.99,,,0.07,weatherlink.com 1.10,2013-08-26 17:42:00,
2013-08-26 10:57:00,74.6,59.0,29.89,SSE,155,1.0,-999.0,59,-99.99,,,0.08,weatherlink.com 1.10,2013-08-26 17:57:00,
2013-08-26 11:12:00,74.5,59.0,29.88,SSE,155,0.0,-999.0,59,-99.99,,,0.08,weatherlink.com 1.10,2013-08-26 18:12:00,
2013-08-26 11:27:00,76.3,58.0,29.88,South,182,1.0,-999.0,53,-99.99,,,0.08,weatherlink.com 1.10,2013-08-26 18:27:00,
2013-08-26 11:42:00,77.0,57.0,29.86,South,177,0.0,-999.0,51,-99.99,,,0.08,weatherlink.com 1.10,2013-08-26 18:42:00,
2013-08-26 11:57:00,78.1,59.0,29.86,SE,131,2.0,-999.0,52,-99.99,,,0.08,weatherlink.com 1.10,2013-08-26 18:57:00,
2013-08-26 12:12:00,79.6,58.0,29.85,SE,132,1.0,-999.0,48,-99.99,,,0.08,weatherlink.com 1.10,2013-08-26 19:12:00,
2013-08-26 12:27:00,80.5,58.0,29.83,SE,142,1.0,-999.0,47,-99.99,,,0.08,weatherlink.com 1.10,2013-08-26 19:27:00,
2013-08-26 12:42:00,80.7,60.0,29.82,SSE,149,2.0,-999.0,49,-99.99,,,0.08,weatherlink.com 1.10,2013-08-26 19:42:00,
2013-08-26 12:57:00,82.1,57.0,29.81,South,179,1.0,-999.0,42,-99.99,,,0.08,weatherlink.com 1.10,2013-08-26 19:57:00,
2013-08-26 13:12:00,84.3,61.0,29.80,South,180,4.0,-999.0,45,-99.99,,,0.08,weatherlink.com 1.10,2013-08-26 20:12:00,
2013-08-26 13:27:00,85.9,60.0,29.79,South,180,4.0,-999.0,41,-99.99,,,0.09,weatherlink.com 1.10,2013-08-26 20:27:00,
2013-08-26 13:42:00,86.6,59.0,29.78,South,181,0.0,-999.0,39,-99.99,,,0.09,weatherlink.com 1.10,2013-08-26 20:42:00,
2013-08-26 13:57:00,88.4,57.0,29.77,South,188,4.0,-999.0,35,-99.99,,,0.09,weatherlink.com 1.10,2013-08-26 20:57:00,
2013-08-26 14:12:00,88.4,56.0,29.77,WSW,258,6.0,-999.0,33,-99.99,,,0.09,weatherlink.com 1.10,2013-08-26 21:12:00,
2013-08-26 14:27:00,89.4,52.0,29.76,South,182,1.0,-999.0,28,-99.99,,,0.09,weatherlink.com 1.10,2013-08-26 21:27:00,
2013-08-26 14:42:00,89.5,51.0,29.76,South,174,4.0,-999.0,27,-99.99,,,0.09,weatherlink.com 1.10,2013-08-26 21:42:00,
2013-08-26 14:57:00,90.3,53.0,29.75,SSW,194,1.0,-999.0,28,-99.99,,,0.09,weatherlink.com 1.10,2013-08-26 21:57:00,
2013-08-26 15:12:00,90.8,51.0,29.74,SSW,202,2.0,-999.0,26,-99.99,,,0.09,weatherlink.com 1.10,2013-08-26 22:12:00,
2013-08-26 15:27:00,91.0,51.0,29.74,SSW,198,4.0,-999.0,25,-99.99,,,0.10,weatherlink.com 1.10,2013-08-26 22:27:00,
2013-08-26 15:42:00,91.4,51.0,29.74,WSW,247,2.0,-999.0,25,-99.99,,,0.10,weatherlink.com 1.10,2013-08-26 22:42:00,
2013-08-26 15:57:00,90.7,50.0,29.73,South,190,3.0,-999.0,25,-99.99,,,0.10,weatherlink.com 1.10,2013-08-26 22:57:00,
2013-08-26 16:12:00,91.1,52.0,29.73,South,188,1.0,-999.0,26,-99.99,,,0.10,weatherlink.com 1.10,2013-08-26 23:12:00,
2013-08-26 16:27:00,90.2,51.0,29.73,SSE,168,1.0,-999.0,26,-99.99,,,0.10,weatherlink.com 1.10,2013-08-26 23:27:00,
2013-08-26 16:42:00,90.6,49.0,29.74,SSE,153,1.0,-999.0,24,-99.99,,,0.10,weatherlink.com 1.10,2013-08-26 23:42:00,
2013-08-26 16:57:00,90.5,51.0,29.74,SSW,211,2.0,-999.0,26,-99.99,,,0.10,weatherlink.com 1.10,2013-08-26 23:57:00,
2013-08-26 17:12:00,89.6,50.0,29.74,West,268,0.0,-999.0,26,-99.99,,,0.10,weatherlink.com 1.10,2013-08-27 00:12:00,
2013-08-26 17:27:00,89.8,53.0,29.75,South,186,0.0,-999.0,28,-99.99,,,0.10,weatherlink.com 1.10,2013-08-27 00:27:00,
2013-08-26 17:42:00,90.1,52.0,29.75,SE,130,1.0,-999.0,27,-99.99,,,0.10,weatherlink.com 1.10,2013-08-27 00:42:00,
2013-08-26 17:57:00,89.7,52.0,29.74,SSW,192,1.0,-999.0,27,-99.99,,,0.10,weatherlink.com 1.10,2013-08-27 00:57:00,
2013-08-26 18:12:00,88.3,54.0,29.74,SSW,192,0.0,-999.0,31,-99.99,,,0.10,weatherlink.com 1.10,2013-08-27 01:12:00,
2013-08-26 18:27:00,84.8,55.0,29.74,SSW,192,0.0,-999.0,36,-99.99,,,0.10,weatherlink.com 1.10,2013-08-27 01:27:00,
2013-08-26 18:42:00,83.3,56.0,29.75,SSW,192,0.0,-999.0,39,-99.99,,,0.10,weatherlink.com 1.10,2013-08-27 01:42:00,
2013-08-26 18:57:00,81.3,57.0,29.75,SSW,192,0.0,-999.0,43,-99.99,,,0.10,weatherlink.com 1.10,2013-08-27 01:57:00,
2013-08-26 19:12:00,79.9,55.0,29.75,SSW,192,0.0,-999.0,42,-99.99,,,0.10,weatherlink.com 1.10,2013-08-27 02:12:00,
2013-08-26 19:27:00,79.2,53.0,29.75,SSW,192,0.0,-999.0,40,-99.99,,,0.10,weatherlink.com 1.10,2013-08-27 02:27:00,
2013-08-26 19:42:00,78.8,54.0,29.76,SSW,192,0.0,-999.0,42,-99.99,,,0.00,weatherlink.com 1.10,2013-08-27 02:42:00,
2013-08-26 19:57:00,78.2,54.0,29.77,SSW,192,0.0,-999.0,44,-99.99,,,0.00,weatherlink.com 1.10,2013-08-27 02:57:00,
2013-08-26 20:13:00,77.0,56.0,29.78,SSW,192,0.0,-999.0,49,-99.99,,,0.00,weatherlink.com 1.10,2013-08-27 03:13:00,
2013-08-26 20:28:00,75.8,55.0,29.78,SSW,192,1.0,-999.0,48,-99.99,,,0.00,weatherlink.com 1.10,2013-08-27 03:28:00,
2013-08-26 20:43:00,74.7,55.0,29.79,NNE,31,0.0,-999.0,51,-99.99,,,0.00,weatherlink.com 1.10,2013-08-27 03:43:00,
2013-08-26 20:58:00,74.7,54.0,29.80,NE,36,0.0,-999.0,48,-99.99,,,0.00,weatherlink.com 1.10,2013-08-27 03:58:00,
2013-08-26 21:13:00,74.2,55.0,29.80,NE,45,0.0,-999.0,51,-99.99,,,0.00,weatherlink.com 1.10,2013-08-27 04:13:00,
2013-08-26 21:28:00,73.2,54.0,29.81,ENE,78,0.0,-999.0,51,-99.99,,,0.00,weatherlink.com 1.10,2013-08-27 04:28:00,
2013-08-26 21:43:00,72.4,54.0,29.81,ENE,76,0.0,-999.0,53,-99.99,,,0.00,weatherlink.com 1.10,2013-08-27 04:43:00,
2013-08-26 21:58:00,71.2,54.0,29.82,ENE,76,2.0,-999.0,55,-99.99,,,0.00,weatherlink.com 1.10,2013-08-27 04:58:00,
2013-08-26 22:13:00,70.5,56.0,29.82,ENE,71,0.0,-999.0,61,-99.99,,,0.00,weatherlink.com 1.10,2013-08-27 05:13:00,
2013-08-26 22:28:00,69.6,54.0,29.82,ENE,71,0.0,-999.0,59,-99.99,,,0.00,weatherlink.com 1.10,2013-08-27 05:28:00,
2013-08-26 22:43:00,69.3,54.0,29.83,ESE,109,0.0,-999.0,59,-99.99,,,0.00,weatherlink.com 1.10,2013-08-27 05:43:00,
2013-08-26 22:58:00,68.5,57.0,29.84,ESE,108,0.0,-999.0,66,-99.99,,,0.00,weatherlink.com 1.10,2013-08-27 05:58:00,
2013-08-26 23:13:00,67.9,54.0,29.85,East,86,1.0,-999.0,62,-99.99,,,0.00,weatherlink.com 1.10,2013-08-27 06:13:00,
2013-08-26 23:28:00,67.6,55.0,29.85,East,88,0.0,-999.0,65,-99.99,,,0.00,weatherlink.com 1.10,2013-08-27 06:28:00,
2013-08-26 23:43:00,67.0,56.0,29.85,East,88,0.0,-999.0,67,-99.99,,,0.00,weatherlink.com 1.10,2013-08-27 06:43:00,
2013-08-26 23:58:00,66.2,56.0,29.86,East,88,0.0,-999.0,69,-99.99,,,0.00,weatherlink.com 1.10,2013-08-27 06:58:00,